sensor_id;sensor_type;location;lat;lon;timestamp;pressure;altitude;pressure_sealevel;temperature
12753;BMP180;6440;44.616;2.032;2022-08-19T00:01:35;99170;;;19.40
12753;BMP180;6440;44.616;2.032;2022-08-19T00:04:04;99168;;;19.60
12753;BMP180;6440;44.616;2.032;2022-08-19T00:06:31;99173;;;19.70
12753;BMP180;6440;44.616;2.032;2022-08-19T00:09:00;99163;;;19.80
12753;BMP180;6440;44.616;2.032;2022-08-19T00:11:28;99167;;;19.90
12753;BMP180;6440;44.616;2.032;2022-08-19T00:13:57;99167;;;20.00
12753;BMP180;6440;44.616;2.032;2022-08-19T00:16:25;99171;;;20.00
12753;BMP180;6440;44.616;2.032;2022-08-19T00:18:53;99171;;;20.00
12753;BMP180;6440;44.616;2.032;2022-08-19T00:21:21;99177;;;20.00
12753;BMP180;6440;44.616;2.032;2022-08-19T00:23:50;99172;;;20.00
12753;BMP180;6440;44.616;2.032;2022-08-19T00:26:18;99171;;;20.00
12753;BMP180;6440;44.616;2.032;2022-08-19T00:28:47;99172;;;20.00
12753;BMP180;6440;44.616;2.032;2022-08-19T00:31:16;99177;;;20.00
12753;BMP180;6440;44.616;2.032;2022-08-19T00:33:44;99167;;;20.00
12753;BMP180;6440;44.616;2.032;2022-08-19T00:36:13;99166;;;20.10
12753;BMP180;6440;44.616;2.032;2022-08-19T00:38:42;99168;;;20.10
12753;BMP180;6440;44.616;2.032;2022-08-19T00:41:12;99165;;;20.10
12753;BMP180;6440;44.616;2.032;2022-08-19T00:43:38;99169;;;20.10
12753;BMP180;6440;44.616;2.032;2022-08-19T00:46:07;99165;;;20.10
12753;BMP180;6440;44.616;2.032;2022-08-19T00:48:35;99161;;;20.10
12753;BMP180;6440;44.616;2.032;2022-08-19T00:51:03;99156;;;20.10
12753;BMP180;6440;44.616;2.032;2022-08-19T00:53:31;99152;;;20.00
12753;BMP180;6440;44.616;2.032;2022-08-19T00:55:59;99156;;;20.00
12753;BMP180;6440;44.616;2.032;2022-08-19T00:58:29;99160;;;20.00
12753;BMP180;6440;44.616;2.032;2022-08-19T01:00:56;99162;;;20.00
12753;BMP180;6440;44.616;2.032;2022-08-19T01:03:24;99164;;;20.00
12753;BMP180;6440;44.616;2.032;2022-08-19T01:05:53;99155;;;20.00
12753;BMP180;6440;44.616;2.032;2022-08-19T01:08:21;99158;;;19.90
12753;BMP180;6440;44.616;2.032;2022-08-19T01:10:51;99161;;;19.90
12753;BMP180;6440;44.616;2.032;2022-08-19T01:13:19;99156;;;19.90
12753;BMP180;6440;44.616;2.032;2022-08-19T01:15:48;99145;;;19.80
12753;BMP180;6440;44.616;2.032;2022-08-19T01:18:15;99144;;;19.80
12753;BMP180;6440;44.616;2.032;2022-08-19T01:20:42;99143;;;19.80
12753;BMP180;6440;44.616;2.032;2022-08-19T01:23:10;99146;;;19.80
12753;BMP180;6440;44.616;2.032;2022-08-19T01:25:48;99145;;;19.90
12753;BMP180;6440;44.616;2.032;2022-08-19T01:28:25;99151;;;19.90
12753;BMP180;6440;44.616;2.032;2022-08-19T01:30:54;99159;;;20.00
12753;BMP180;6440;44.616;2.032;2022-08-19T01:33:23;99162;;;20.00
12753;BMP180;6440;44.616;2.032;2022-08-19T01:35:52;99157;;;20.10
12753;BMP180;6440;44.616;2.032;2022-08-19T01:38:24;99162;;;20.20
12753;BMP180;6440;44.616;2.032;2022-08-19T01:40:51;99153;;;20.20
12753;BMP180;6440;44.616;2.032;2022-08-19T01:43:19;99152;;;20.30
12753;BMP180;6440;44.616;2.032;2022-08-19T01:45:49;99160;;;20.30
12753;BMP180;6440;44.616;2.032;2022-08-19T01:48:18;99153;;;20.40
12753;BMP180;6440;44.616;2.032;2022-08-19T01:50:47;99151;;;20.40
12753;BMP180;6440;44.616;2.032;2022-08-19T01:53:16;99154;;;20.40
12753;BMP180;6440;44.616;2.032;2022-08-19T01:55:45;99161;;;20.50
12753;BMP180;6440;44.616;2.032;2022-08-19T01:58:17;99161;;;20.50
12753;BMP180;6440;44.616;2.032;2022-08-19T02:00:43;99153;;;20.50
12753;BMP180;6440;44.616;2.032;2022-08-19T02:03:11;99149;;;20.60
12753;BMP180;6440;44.616;2.032;2022-08-19T02:05:39;99154;;;20.60
12753;BMP180;6440;44.616;2.032;2022-08-19T02:08:07;99157;;;20.60
12753;BMP180;6440;44.616;2.032;2022-08-19T02:10:38;99162;;;20.60
12753;BMP180;6440;44.616;2.032;2022-08-19T02:13:04;99166;;;20.70
12753;BMP180;6440;44.616;2.032;2022-08-19T02:15:32;99169;;;20.80
12753;BMP180;6440;44.616;2.032;2022-08-19T02:18:01;99171;;;20.80
12753;BMP180;6440;44.616;2.032;2022-08-19T02:20:30;99179;;;20.80
12753;BMP180;6440;44.616;2.032;2022-08-19T02:22:59;99180;;;20.80
12753;BMP180;6440;44.616;2.032;2022-08-19T02:25:27;99175;;;20.90
12753;BMP180;6440;44.616;2.032;2022-08-19T02:27:56;99183;;;20.80
12753;BMP180;6440;44.616;2.032;2022-08-19T02:30:24;99179;;;20.80
12753;BMP180;6440;44.616;2.032;2022-08-19T02:32:52;99190;;;20.80
12753;BMP180;6440;44.616;2.032;2022-08-19T02:35:20;99179;;;20.80
12753;BMP180;6440;44.616;2.032;2022-08-19T02:37:49;99180;;;20.90
12753;BMP180;6440;44.616;2.032;2022-08-19T02:40:23;99189;;;20.40
12753;BMP180;6440;44.616;2.032;2022-08-19T02:42:52;99182;;;20.90
12753;BMP180;6440;44.616;2.032;2022-08-19T02:45:20;99191;;;20.90
12753;BMP180;6440;44.616;2.032;2022-08-19T02:47:49;99187;;;20.80
12753;BMP180;6440;44.616;2.032;2022-08-19T02:50:18;99187;;;20.80
12753;BMP180;6440;44.616;2.032;2022-08-19T02:52:47;99187;;;20.80
12753;BMP180;6440;44.616;2.032;2022-08-19T02:55:16;99195;;;20.80
12753;BMP180;6440;44.616;2.032;2022-08-19T02:57:45;99189;;;20.80
12753;BMP180;6440;44.616;2.032;2022-08-19T03:00:14;99188;;;20.80
12753;BMP180;6440;44.616;2.032;2022-08-19T03:02:42;99191;;;20.80
12753;BMP180;6440;44.616;2.032;2022-08-19T03:05:11;99193;;;20.70
12753;BMP180;6440;44.616;2.032;2022-08-19T03:07:39;99197;;;20.80
12753;BMP180;6440;44.616;2.032;2022-08-19T03:10:08;99197;;;20.80
12753;BMP180;6440;44.616;2.032;2022-08-19T03:12:38;99199;;;20.80
12753;BMP180;6440;44.616;2.032;2022-08-19T03:15:06;99206;;;20.70
12753;BMP180;6440;44.616;2.032;2022-08-19T03:17:35;99199;;;20.80
12753;BMP180;6440;44.616;2.032;2022-08-19T03:20:05;99207;;;20.80
12753;BMP180;6440;44.616;2.032;2022-08-19T03:22:34;99205;;;20.70
12753;BMP180;6440;44.616;2.032;2022-08-19T03:25:02;99204;;;20.80
12753;BMP180;6440;44.616;2.032;2022-08-19T03:27:31;99209;;;20.80
12753;BMP180;6440;44.616;2.032;2022-08-19T03:30:00;99202;;;20.80
12753;BMP180;6440;44.616;2.032;2022-08-19T03:32:29;99210;;;20.70
12753;BMP180;6440;44.616;2.032;2022-08-19T03:34:58;99199;;;20.70
12753;BMP180;6440;44.616;2.032;2022-08-19T03:37:27;99201;;;20.80
12753;BMP180;6440;44.616;2.032;2022-08-19T03:39:56;99211;;;20.70
12753;BMP180;6440;44.616;2.032;2022-08-19T03:42:25;99206;;;20.80
12753;BMP180;6440;44.616;2.032;2022-08-19T03:44:53;99201;;;20.80
12753;BMP180;6440;44.616;2.032;2022-08-19T03:47:22;99208;;;20.80
12753;BMP180;6440;44.616;2.032;2022-08-19T03:49:52;99205;;;20.80
12753;BMP180;6440;44.616;2.032;2022-08-19T03:52:21;99210;;;20.70
12753;BMP180;6440;44.616;2.032;2022-08-19T03:54:50;99204;;;20.60
12753;BMP180;6440;44.616;2.032;2022-08-19T03:57:18;99208;;;20.60
12753;BMP180;6440;44.616;2.032;2022-08-19T03:59:47;99204;;;20.60
12753;BMP180;6440;44.616;2.032;2022-08-19T04:02:16;99212;;;20.60
12753;BMP180;6440;44.616;2.032;2022-08-19T04:04:44;99206;;;20.70
12753;BMP180;6440;44.616;2.032;2022-08-19T04:07:13;99211;;;20.80
12753;BMP180;6440;44.616;2.032;2022-08-19T04:09:41;99212;;;20.70
12753;BMP180;6440;44.616;2.032;2022-08-19T04:12:10;99216;;;20.70
12753;BMP180;6440;44.616;2.032;2022-08-19T04:14:38;99211;;;20.70
12753;BMP180;6440;44.616;2.032;2022-08-19T04:17:06;99225;;;20.70
12753;BMP180;6440;44.616;2.032;2022-08-19T04:19:35;99222;;;20.60
12753;BMP180;6440;44.616;2.032;2022-08-19T04:22:04;99225;;;20.60
12753;BMP180;6440;44.616;2.032;2022-08-19T04:24:35;99221;;;20.60
12753;BMP180;6440;44.616;2.032;2022-08-19T04:27:01;99228;;;20.60
12753;BMP180;6440;44.616;2.032;2022-08-19T04:29:29;99232;;;20.60
12753;BMP180;6440;44.616;2.032;2022-08-19T04:31:58;99228;;;20.60
12753;BMP180;6440;44.616;2.032;2022-08-19T04:34:26;99238;;;20.50
12753;BMP180;6440;44.616;2.032;2022-08-19T04:36:54;99237;;;19.90
12753;BMP180;6440;44.616;2.032;2022-08-19T04:39:23;99238;;;20.60
12753;BMP180;6440;44.616;2.032;2022-08-19T04:41:50;99238;;;20.60
12753;BMP180;6440;44.616;2.032;2022-08-19T04:44:24;99241;;;20.60
12753;BMP180;6440;44.616;2.032;2022-08-19T04:46:52;99240;;;20.60
12753;BMP180;6440;44.616;2.032;2022-08-19T04:49:21;99243;;;20.60
12753;BMP180;6440;44.616;2.032;2022-08-19T04:51:49;99242;;;20.50
12753;BMP180;6440;44.616;2.032;2022-08-19T04:54:17;99244;;;20.50
12753;BMP180;6440;44.616;2.032;2022-08-19T04:56:45;99255;;;20.50
12753;BMP180;6440;44.616;2.032;2022-08-19T04:59:14;99260;;;20.50
12753;BMP180;6440;44.616;2.032;2022-08-19T05:01:42;99265;;;20.50
12753;BMP180;6440;44.616;2.032;2022-08-19T05:04:11;99273;;;20.50
12753;BMP180;6440;44.616;2.032;2022-08-19T05:06:39;99269;;;20.60
12753;BMP180;6440;44.616;2.032;2022-08-19T05:09:08;99272;;;20.60
12753;BMP180;6440;44.616;2.032;2022-08-19T05:11:36;99278;;;20.70
12753;BMP180;6440;44.616;2.032;2022-08-19T05:14:05;99277;;;20.70
12753;BMP180;6440;44.616;2.032;2022-08-19T05:16:33;99277;;;20.70
12753;BMP180;6440;44.616;2.032;2022-08-19T05:19:01;99277;;;20.70
12753;BMP180;6440;44.616;2.032;2022-08-19T05:21:35;99283;;;20.70
12753;BMP180;6440;44.616;2.032;2022-08-19T05:24:08;99294;;;20.70
12753;BMP180;6440;44.616;2.032;2022-08-19T05:26:38;99281;;;20.60
12753;BMP180;6440;44.616;2.032;2022-08-19T05:29:06;99281;;;20.70
12753;BMP180;6440;44.616;2.032;2022-08-19T05:31:33;99289;;;20.80
12753;BMP180;6440;44.616;2.032;2022-08-19T05:34:02;99287;;;20.70
12753;BMP180;6440;44.616;2.032;2022-08-19T05:36:32;99291;;;20.80
12753;BMP180;6440;44.616;2.032;2022-08-19T05:38:58;99295;;;20.70
12753;BMP180;6440;44.616;2.032;2022-08-19T05:41:27;99290;;;20.70
12753;BMP180;6440;44.616;2.032;2022-08-19T05:43:57;99300;;;20.60
12753;BMP180;6440;44.616;2.032;2022-08-19T05:46:24;99300;;;20.60
12753;BMP180;6440;44.616;2.032;2022-08-19T05:48:53;99310;;;20.60
12753;BMP180;6440;44.616;2.032;2022-08-19T05:51:22;99297;;;20.70
12753;BMP180;6440;44.616;2.032;2022-08-19T05:53:49;99305;;;20.70
12753;BMP180;6440;44.616;2.032;2022-08-19T05:56:19;99309;;;20.70
12753;BMP180;6440;44.616;2.032;2022-08-19T05:58:47;99299;;;20.70
12753;BMP180;6440;44.616;2.032;2022-08-19T06:01:16;99304;;;20.70
12753;BMP180;6440;44.616;2.032;2022-08-19T06:03:44;99305;;;20.70
12753;BMP180;6440;44.616;2.032;2022-08-19T06:06:13;99310;;;20.80
12753;BMP180;6440;44.616;2.032;2022-08-19T06:08:41;99314;;;20.70
12753;BMP180;6440;44.616;2.032;2022-08-19T06:11:23;99313;;;20.70
12753;BMP180;6440;44.616;2.032;2022-08-19T06:13:50;99314;;;20.80
12753;BMP180;6440;44.616;2.032;2022-08-19T06:16:20;99318;;;20.80
12753;BMP180;6440;44.616;2.032;2022-08-19T06:18:51;99315;;;20.80
12753;BMP180;6440;44.616;2.032;2022-08-19T06:21:20;99319;;;20.80
12753;BMP180;6440;44.616;2.032;2022-08-19T06:23:48;99320;;;20.80
12753;BMP180;6440;44.616;2.032;2022-08-19T06:26:16;99318;;;20.80
12753;BMP180;6440;44.616;2.032;2022-08-19T06:28:45;99320;;;20.80
12753;BMP180;6440;44.616;2.032;2022-08-19T06:31:24;99320;;;20.90
12753;BMP180;6440;44.616;2.032;2022-08-19T06:33:50;99311;;;21.00
12753;BMP180;6440;44.616;2.032;2022-08-19T06:36:24;99314;;;21.00
12753;BMP180;6440;44.616;2.032;2022-08-19T06:38:55;99328;;;21.00
12753;BMP180;6440;44.616;2.032;2022-08-19T06:41:24;99321;;;21.00
12753;BMP180;6440;44.616;2.032;2022-08-19T06:43:52;99319;;;21.00
12753;BMP180;6440;44.616;2.032;2022-08-19T06:46:20;99326;;;21.10
12753;BMP180;6440;44.616;2.032;2022-08-19T06:48:48;99326;;;21.00
12753;BMP180;6440;44.616;2.032;2022-08-19T06:51:17;99329;;;21.00
12753;BMP180;6440;44.616;2.032;2022-08-19T06:53:48;99338;;;21.10
12753;BMP180;6440;44.616;2.032;2022-08-19T06:56:17;99339;;;21.20
12753;BMP180;6440;44.616;2.032;2022-08-19T06:58:45;99338;;;21.20
12753;BMP180;6440;44.616;2.032;2022-08-19T07:01:13;99338;;;21.20
12753;BMP180;6440;44.616;2.032;2022-08-19T07:03:43;99337;;;21.20
12753;BMP180;6440;44.616;2.032;2022-08-19T07:06:14;99351;;;21.40
12753;BMP180;6440;44.616;2.032;2022-08-19T07:08:40;99343;;;21.30
12753;BMP180;6440;44.616;2.032;2022-08-19T07:11:10;99348;;;21.20
12753;BMP180;6440;44.616;2.032;2022-08-19T07:13:37;99346;;;21.20
12753;BMP180;6440;44.616;2.032;2022-08-19T07:16:06;99357;;;21.30
12753;BMP180;6440;44.616;2.032;2022-08-19T07:18:33;99358;;;21.20
12753;BMP180;6440;44.616;2.032;2022-08-19T07:21:04;99358;;;21.20
12753;BMP180;6440;44.616;2.032;2022-08-19T07:23:33;99382;;;21.20
12753;BMP180;6440;44.616;2.032;2022-08-19T07:26:09;99364;;;21.10
12753;BMP180;6440;44.616;2.032;2022-08-19T07:28:37;99375;;;21.10
12753;BMP180;6440;44.616;2.032;2022-08-19T07:31:07;99372;;;21.10
12753;BMP180;6440;44.616;2.032;2022-08-19T07:33:35;99379;;;21.20
12753;BMP180;6440;44.616;2.032;2022-08-19T07:36:05;99380;;;21.10
12753;BMP180;6440;44.616;2.032;2022-08-19T07:38:33;99381;;;21.10
12753;BMP180;6440;44.616;2.032;2022-08-19T07:41:01;99387;;;21.40
12753;BMP180;6440;44.616;2.032;2022-08-19T07:43:30;99391;;;21.40
12753;BMP180;6440;44.616;2.032;2022-08-19T07:45:58;99390;;;21.40
12753;BMP180;6440;44.616;2.032;2022-08-19T07:48:28;99386;;;21.50
12753;BMP180;6440;44.616;2.032;2022-08-19T07:50:57;99379;;;21.60
12753;BMP180;6440;44.616;2.032;2022-08-19T07:53:24;99383;;;21.60
12753;BMP180;6440;44.616;2.032;2022-08-19T07:55:53;99383;;;21.60
12753;BMP180;6440;44.616;2.032;2022-08-19T07:58:21;99381;;;21.50
12753;BMP180;6440;44.616;2.032;2022-08-19T08:00:50;99381;;;21.40
12753;BMP180;6440;44.616;2.032;2022-08-19T08:03:18;99380;;;21.40
12753;BMP180;6440;44.616;2.032;2022-08-19T08:05:47;99376;;;21.70
12753;BMP180;6440;44.616;2.032;2022-08-19T08:08:21;99382;;;21.70
12753;BMP180;6440;44.616;2.032;2022-08-19T08:10:55;99371;;;21.80
12753;BMP180;6440;44.616;2.032;2022-08-19T08:13:24;99374;;;22.20
12753;BMP180;6440;44.616;2.032;2022-08-19T08:15:52;99375;;;22.40
12753;BMP180;6440;44.616;2.032;2022-08-19T08:18:20;99372;;;22.60
12753;BMP180;6440;44.616;2.032;2022-08-19T08:20:49;99380;;;22.70
12753;BMP180;6440;44.616;2.032;2022-08-19T08:23:18;99386;;;22.80
12753;BMP180;6440;44.616;2.032;2022-08-19T08:25:50;99391;;;22.70
12753;BMP180;6440;44.616;2.032;2022-08-19T08:28:18;99412;;;22.60
12753;BMP180;6440;44.616;2.032;2022-08-19T08:30:46;99413;;;22.50
12753;BMP180;6440;44.616;2.032;2022-08-19T08:33:17;99414;;;22.50
12753;BMP180;6440;44.616;2.032;2022-08-19T08:35:45;99406;;;22.50
12753;BMP180;6440;44.616;2.032;2022-08-19T08:38:13;99411;;;22.60
12753;BMP180;6440;44.616;2.032;2022-08-19T08:40:46;99412;;;22.60
12753;BMP180;6440;44.616;2.032;2022-08-19T08:43:27;99407;;;22.60
12753;BMP180;6440;44.616;2.032;2022-08-19T08:46:03;99407;;;22.70
12753;BMP180;6440;44.616;2.032;2022-08-19T08:48:49;99407;;;22.50
12753;BMP180;6440;44.616;2.032;2022-08-19T08:51:18;99409;;;22.50
12753;BMP180;6440;44.616;2.032;2022-08-19T08:53:44;99407;;;22.70
12753;BMP180;6440;44.616;2.032;2022-08-19T08:56:12;99405;;;22.80
12753;BMP180;6440;44.616;2.032;2022-08-19T08:58:51;99410;;;22.90
12753;BMP180;6440;44.616;2.032;2022-08-19T09:01:18;99412;;;22.90
12753;BMP180;6440;44.616;2.032;2022-08-19T09:03:46;99417;;;22.90
12753;BMP180;6440;44.616;2.032;2022-08-19T09:06:24;99411;;;22.90
12753;BMP180;6440;44.616;2.032;2022-08-19T09:09:05;99418;;;22.70
12753;BMP180;6440;44.616;2.032;2022-08-19T09:14:46;99413;;;22.70
12753;BMP180;6440;44.616;2.032;2022-08-19T09:17:12;99414;;;22.80
12753;BMP180;6440;44.616;2.032;2022-08-19T09:19:50;99431;;;22.80
12753;BMP180;6440;44.616;2.032;2022-08-19T09:22:17;99429;;;22.70
12753;BMP180;6440;44.616;2.032;2022-08-19T09:24:45;99429;;;22.80
12753;BMP180;6440;44.616;2.032;2022-08-19T09:27:14;99425;;;22.70
12753;BMP180;6440;44.616;2.032;2022-08-19T09:29:43;99421;;;22.80
12753;BMP180;6440;44.616;2.032;2022-08-19T09:32:12;99427;;;22.90
12753;BMP180;6440;44.616;2.032;2022-08-19T09:34:40;99427;;;23.10
12753;BMP180;6440;44.616;2.032;2022-08-19T09:37:09;99419;;;23.30
12753;BMP180;6440;44.616;2.032;2022-08-19T09:39:37;99424;;;23.40
12753;BMP180;6440;44.616;2.032;2022-08-19T09:42:05;99424;;;23.30
12753;BMP180;6440;44.616;2.032;2022-08-19T09:44:34;99427;;;23.30
12753;BMP180;6440;44.616;2.032;2022-08-19T09:47:02;99433;;;23.40
12753;BMP180;6440;44.616;2.032;2022-08-19T09:49:31;99429;;;23.30
12753;BMP180;6440;44.616;2.032;2022-08-19T09:51:59;99440;;;23.40
12753;BMP180;6440;44.616;2.032;2022-08-19T09:54:27;99436;;;23.40
12753;BMP180;6440;44.616;2.032;2022-08-19T09:56:55;99431;;;23.30
12753;BMP180;6440;44.616;2.032;2022-08-19T09:59:23;99430;;;23.30
12753;BMP180;6440;44.616;2.032;2022-08-19T10:01:51;99425;;;23.40
12753;BMP180;6440;44.616;2.032;2022-08-19T10:04:19;99427;;;23.70
12753;BMP180;6440;44.616;2.032;2022-08-19T10:06:47;99419;;;23.70
12753;BMP180;6440;44.616;2.032;2022-08-19T10:09:16;99430;;;23.80
12753;BMP180;6440;44.616;2.032;2022-08-19T10:11:43;99429;;;23.90
12753;BMP180;6440;44.616;2.032;2022-08-19T10:14:11;99430;;;23.90
12753;BMP180;6440;44.616;2.032;2022-08-19T10:16:39;99429;;;23.90
12753;BMP180;6440;44.616;2.032;2022-08-19T10:19:08;99436;;;24.00
12753;BMP180;6440;44.616;2.032;2022-08-19T10:21:36;99428;;;24.10
12753;BMP180;6440;44.616;2.032;2022-08-19T10:24:04;99428;;;24.20
12753;BMP180;6440;44.616;2.032;2022-08-19T10:26:34;99425;;;24.30
12753;BMP180;6440;44.616;2.032;2022-08-19T10:29:02;99428;;;24.40
12753;BMP180;6440;44.616;2.032;2022-08-19T10:31:30;99423;;;24.50
12753;BMP180;6440;44.616;2.032;2022-08-19T10:33:57;99427;;;24.60
12753;BMP180;6440;44.616;2.032;2022-08-19T10:36:27;99428;;;24.70
12753;BMP180;6440;44.616;2.032;2022-08-19T10:38:55;99431;;;24.80
12753;BMP180;6440;44.616;2.032;2022-08-19T10:41:23;99428;;;24.70
12753;BMP180;6440;44.616;2.032;2022-08-19T10:43:52;99432;;;24.80
12753;BMP180;6440;44.616;2.032;2022-08-19T10:46:20;99430;;;24.80
12753;BMP180;6440;44.616;2.032;2022-08-19T10:48:48;99432;;;25.00
12753;BMP180;6440;44.616;2.032;2022-08-19T10:51:16;99435;;;25.30
12753;BMP180;6440;44.616;2.032;2022-08-19T10:53:49;99433;;;25.60
12753;BMP180;6440;44.616;2.032;2022-08-19T10:56:17;99430;;;25.70
12753;BMP180;6440;44.616;2.032;2022-08-19T10:58:50;99425;;;25.70
12753;BMP180;6440;44.616;2.032;2022-08-19T11:01:19;99431;;;25.90
12753;BMP180;6440;44.616;2.032;2022-08-19T11:03:48;99429;;;25.60
12753;BMP180;6440;44.616;2.032;2022-08-19T11:06:16;99420;;;25.70
12753;BMP180;6440;44.616;2.032;2022-08-19T11:08:44;99419;;;26.00
12753;BMP180;6440;44.616;2.032;2022-08-19T11:11:13;99419;;;25.80
12753;BMP180;6440;44.616;2.032;2022-08-19T11:13:41;99414;;;25.80
12753;BMP180;6440;44.616;2.032;2022-08-19T11:16:10;99414;;;25.90
12753;BMP180;6440;44.616;2.032;2022-08-19T11:18:40;99409;;;26.20
12753;BMP180;6440;44.616;2.032;2022-08-19T11:21:11;99414;;;26.40
12753;BMP180;6440;44.616;2.032;2022-08-19T11:23:37;99415;;;26.40
12753;BMP180;6440;44.616;2.032;2022-08-19T11:26:05;99396;;;26.60
12753;BMP180;6440;44.616;2.032;2022-08-19T11:28:34;99400;;;27.20
12753;BMP180;6440;44.616;2.032;2022-08-19T11:31:02;99386;;;27.60
12753;BMP180;6440;44.616;2.032;2022-08-19T11:33:30;99387;;;28.30
12753;BMP180;6440;44.616;2.032;2022-08-19T11:35:58;99386;;;28.80
12753;BMP180;6440;44.616;2.032;2022-08-19T11:38:26;99383;;;29.20
12753;BMP180;6440;44.616;2.032;2022-08-19T11:40:57;99384;;;29.70
12753;BMP180;6440;44.616;2.032;2022-08-19T11:43:24;99384;;;29.40
12753;BMP180;6440;44.616;2.032;2022-08-19T11:45:53;99380;;;29.00
12753;BMP180;6440;44.616;2.032;2022-08-19T11:48:20;99386;;;29.10
12753;BMP180;6440;44.616;2.032;2022-08-19T11:50:51;99385;;;28.70
12753;BMP180;6440;44.616;2.032;2022-08-19T11:53:19;99393;;;28.20
12753;BMP180;6440;44.616;2.032;2022-08-19T11:55:47;99388;;;28.20
12753;BMP180;6440;44.616;2.032;2022-08-19T11:58:16;99403;;;28.00
12753;BMP180;6440;44.616;2.032;2022-08-19T12:00:43;99396;;;27.70
12753;BMP180;6440;44.616;2.032;2022-08-19T12:03:11;99393;;;27.90
12753;BMP180;6440;44.616;2.032;2022-08-19T12:05:38;99411;;;27.10
12753;BMP180;6440;44.616;2.032;2022-08-19T12:08:06;99391;;;27.50
12753;BMP180;6440;44.616;2.032;2022-08-19T12:10:34;99398;;;27.30
12753;BMP180;6440;44.616;2.032;2022-08-19T12:13:02;99393;;;27.20
12753;BMP180;6440;44.616;2.032;2022-08-19T12:15:30;99388;;;27.40
12753;BMP180;6440;44.616;2.032;2022-08-19T12:17:58;99400;;;27.40
12753;BMP180;6440;44.616;2.032;2022-08-19T12:20:27;99400;;;27.30
12753;BMP180;6440;44.616;2.032;2022-08-19T12:22:55;99397;;;27.30
12753;BMP180;6440;44.616;2.032;2022-08-19T12:25:24;99400;;;27.50
12753;BMP180;6440;44.616;2.032;2022-08-19T12:27:53;99397;;;27.40
12753;BMP180;6440;44.616;2.032;2022-08-19T12:30:21;99389;;;27.60
12753;BMP180;6440;44.616;2.032;2022-08-19T12:32:50;99395;;;27.70
12753;BMP180;6440;44.616;2.032;2022-08-19T12:35:18;99395;;;27.70
12753;BMP180;6440;44.616;2.032;2022-08-19T12:37:47;99395;;;27.70
12753;BMP180;6440;44.616;2.032;2022-08-19T12:40:15;99396;;;27.90
12753;BMP180;6440;44.616;2.032;2022-08-19T12:42:44;99403;;;28.10
12753;BMP180;6440;44.616;2.032;2022-08-19T12:45:13;99389;;;28.00
12753;BMP180;6440;44.616;2.032;2022-08-19T12:47:40;99400;;;28.20
12753;BMP180;6440;44.616;2.032;2022-08-19T12:50:09;99396;;;28.10
12753;BMP180;6440;44.616;2.032;2022-08-19T12:52:37;99389;;;28.20
12753;BMP180;6440;44.616;2.032;2022-08-19T12:55:07;99397;;;28.30
12753;BMP180;6440;44.616;2.032;2022-08-19T12:57:35;99402;;;28.30
12753;BMP180;6440;44.616;2.032;2022-08-19T13:00:10;99400;;;28.10
12753;BMP180;6440;44.616;2.032;2022-08-19T13:02:39;99398;;;28.00
12753;BMP180;6440;44.616;2.032;2022-08-19T13:05:08;99395;;;28.00
12753;BMP180;6440;44.616;2.032;2022-08-19T13:07:35;99396;;;27.80
12753;BMP180;6440;44.616;2.032;2022-08-19T13:10:03;99393;;;27.90
12753;BMP180;6440;44.616;2.032;2022-08-19T13:12:32;99387;;;28.20
12753;BMP180;6440;44.616;2.032;2022-08-19T13:15:00;99390;;;28.40
12753;BMP180;6440;44.616;2.032;2022-08-19T13:17:29;99379;;;28.60
12753;BMP180;6440;44.616;2.032;2022-08-19T13:19:58;99372;;;28.60
12753;BMP180;6440;44.616;2.032;2022-08-19T13:22:26;99369;;;28.60
12753;BMP180;6440;44.616;2.032;2022-08-19T13:24:55;99371;;;29.00
12753;BMP180;6440;44.616;2.032;2022-08-19T13:27:24;99366;;;29.10
12753;BMP180;6440;44.616;2.032;2022-08-19T13:29:52;99377;;;29.30
12753;BMP180;6440;44.616;2.032;2022-08-19T13:32:26;99369;;;29.30
12753;BMP180;6440;44.616;2.032;2022-08-19T13:35:00;99373;;;29.40
12753;BMP180;6440;44.616;2.032;2022-08-19T13:37:28;99373;;;29.50
12753;BMP180;6440;44.616;2.032;2022-08-19T13:40:03;99357;;;29.20
12753;BMP180;6440;44.616;2.032;2022-08-19T13:42:32;99373;;;29.20
12753;BMP180;6440;44.616;2.032;2022-08-19T13:45:00;99367;;;29.10
12753;BMP180;6440;44.616;2.032;2022-08-19T13:47:29;99364;;;29.50
12753;BMP180;6440;44.616;2.032;2022-08-19T13:49:58;99363;;;29.50
12753;BMP180;6440;44.616;2.032;2022-08-19T13:52:27;99360;;;29.80
12753;BMP180;6440;44.616;2.032;2022-08-19T13:54:55;99356;;;29.70
12753;BMP180;6440;44.616;2.032;2022-08-19T13:57:24;99364;;;29.70
12753;BMP180;6440;44.616;2.032;2022-08-19T13:59:53;99357;;;29.70
12753;BMP180;6440;44.616;2.032;2022-08-19T14:02:22;99359;;;29.60
12753;BMP180;6440;44.616;2.032;2022-08-19T14:04:50;99359;;;29.50
12753;BMP180;6440;44.616;2.032;2022-08-19T14:07:19;99358;;;29.20
12753;BMP180;6440;44.616;2.032;2022-08-19T14:09:48;99364;;;29.30
12753;BMP180;6440;44.616;2.032;2022-08-19T14:12:19;99359;;;29.20
12753;BMP180;6440;44.616;2.032;2022-08-19T14:14:47;99358;;;29.30
12753;BMP180;6440;44.616;2.032;2022-08-19T14:17:15;99355;;;29.20
12753;BMP180;6440;44.616;2.032;2022-08-19T14:19:43;99357;;;29.20
12753;BMP180;6440;44.616;2.032;2022-08-19T14:22:11;99352;;;29.30
12753;BMP180;6440;44.616;2.032;2022-08-19T14:24:39;99349;;;29.20
12753;BMP180;6440;44.616;2.032;2022-08-19T14:27:08;99351;;;29.20
12753;BMP180;6440;44.616;2.032;2022-08-19T14:29:37;99348;;;29.20
12753;BMP180;6440;44.616;2.032;2022-08-19T14:32:05;99341;;;29.30
12753;BMP180;6440;44.616;2.032;2022-08-19T14:34:34;99346;;;29.30
12753;BMP180;6440;44.616;2.032;2022-08-19T14:37:03;99343;;;29.30
12753;BMP180;6440;44.616;2.032;2022-08-19T14:39:31;99337;;;29.10
12753;BMP180;6440;44.616;2.032;2022-08-19T14:42:00;99338;;;29.00
12753;BMP180;6440;44.616;2.032;2022-08-19T14:44:29;99337;;;28.80
12753;BMP180;6440;44.616;2.032;2022-08-19T14:46:57;99333;;;28.70
12753;BMP180;6440;44.616;2.032;2022-08-19T14:49:26;99336;;;28.60
12753;BMP180;6440;44.616;2.032;2022-08-19T14:51:55;99339;;;28.70
12753;BMP180;6440;44.616;2.032;2022-08-19T14:54:23;99335;;;28.60
12753;BMP180;6440;44.616;2.032;2022-08-19T14:56:52;99342;;;28.70
12753;BMP180;6440;44.616;2.032;2022-08-19T14:59:20;99326;;;28.40
12753;BMP180;6440;44.616;2.032;2022-08-19T15:01:48;99325;;;28.40
12753;BMP180;6440;44.616;2.032;2022-08-19T15:04:17;99326;;;28.40
12753;BMP180;6440;44.616;2.032;2022-08-19T15:06:46;99326;;;28.30
12753;BMP180;6440;44.616;2.032;2022-08-19T15:09:15;99320;;;28.10
12753;BMP180;6440;44.616;2.032;2022-08-19T15:11:43;99322;;;28.00
12753;BMP180;6440;44.616;2.032;2022-08-19T15:14:11;99317;;;28.10